Time;durP1;ratioP1;P1;durP2;ratioP2;P2;SDS_P1;SDS_P2;PMS_P1;PMS_P2;Temp;Humidity;BMP_temperature;BMP_pressure;BME280_temperature;BME280_humidity;BME280_pressure;Samples;Min_cycle;Max_cycle;Signal;HPM_P1;HPM_P2
2021/09/21 00:00:42;;;;;;;5.32;4.57;;;;;;;;;;5056816;28;20044;-67
2021/09/21 00:03:08;;;;;;;5.15;4.57;;;;;;;;;;5060675;28;20048;-68
2021/09/21 00:05:34;;;;;;;5.57;5.05;;;;;;;;;;5058455;28;20051;-68
2021/09/21 00:08:00;;;;;;;6.53;5.30;;;;;;;;;;5063189;28;20044;-68
2021/09/21 00:10:26;;;;;;;6.22;4.75;;;;;;;;;;5055079;28;20132;-68
2021/09/21 00:12:52;;;;;;;5.03;4.53;;;;;;;;;;5065314;28;20045;-68
2021/09/21 00:15:19;;;;;;;8.55;5.03;;;;;;;;;;5054070;28;20105;-68
2021/09/21 00:17:46;;;;;;;5.68;4.72;;;;;;;;;;5061125;28;20485;-68
2021/09/21 00:20:13;;;;;;;7.97;5.18;;;;;;;;;;5053870;28;20049;-68
2021/09/21 00:22:40;;;;;;;7.03;5.03;;;;;;;;;;5063337;28;20036;-68
2021/09/21 00:25:06;;;;;;;5.40;4.90;;;;;;;;;;5060944;28;20560;-68
2021/09/21 00:27:32;;;;;;;7.15;5.35;;;;;;;;;;5056894;28;20045;-68
2021/09/21 00:29:58;;;;;;;5.78;4.70;;;;;;;;;;5065601;28;20441;-68
2021/09/21 00:32:25;;;;;;;6.45;5.20;;;;;;;;;;5055727;28;20064;-68
2021/09/21 00:34:52;;;;;;;6.00;4.90;;;;;;;;;;5065076;28;20115;-68
2021/09/21 00:37:18;;;;;;;6.57;5.28;;;;;;;;;;5047312;28;20041;-68
2021/09/21 00:39:45;;;;;;;5.18;4.68;;;;;;;;;;5058895;28;20101;-68
2021/09/21 00:42:12;;;;;;;7.05;4.97;;;;;;;;;;5056954;28;20044;-68
2021/09/21 00:44:39;;;;;;;6.47;5.72;;;;;;;;;;5064850;28;20067;-68
2021/09/21 00:47:06;;;;;;;6.13;5.53;;;;;;;;;;5062977;28;20044;-68
2021/09/21 00:49:33;;;;;;;6.10;5.13;;;;;;;;;;5066232;28;20489;-68
2021/09/21 00:52:00;;;;;;;9.63;5.72;;;;;;;;;;5044492;28;20064;-68
2021/09/21 00:54:26;;;;;;;6.07;5.47;;;;;;;;;;5068607;28;20041;-68
2021/09/21 00:56:53;;;;;;;7.43;5.70;;;;;;;;;;5059372;28;20055;-68
2021/09/21 00:59:19;;;;;;;6.85;6.10;;;;;;;;;;5064566;28;20123;-68
2021/09/21 01:01:45;;;;;;;7.18;6.32;;;;;;;;;;5064796;28;20037;-68
2021/09/21 01:04:12;;;;;;;7.53;5.57;;;;;;;;;;5068617;28;20047;-68
2021/09/21 01:06:38;;;;;;;10.35;6.38;;;;;;;;;;5068133;28;20052;-68
2021/09/21 01:09:04;;;;;;;8.05;6.05;;;;;;;;;;5060645;28;20079;-68
2021/09/21 01:11:30;;;;;;;7.90;6.57;;;;;;;;;;5057356;28;20123;-68
2021/09/21 01:13:56;;;;;;;8.48;6.40;;;;;;;;;;5059777;28;20439;-68
2021/09/21 01:16:23;;;;;;;7.13;6.38;;;;;;;;;;5066817;28;20036;-68
2021/09/21 01:18:50;;;;;;;6.90;6.20;;;;;;;;;;5059247;28;20040;-68
2021/09/21 01:21:16;;;;;;;6.75;5.95;;;;;;;;;;5064491;28;20053;-68
2021/09/21 01:23:47;;;;;;;8.40;5.80;;;;;;;;;;5059263;28;20481;-68
2021/09/21 01:26:13;;;;;;;5.70;5.20;;;;;;;;;;5072999;28;20080;-68
2021/09/21 01:28:39;;;;;;;6.93;6.30;;;;;;;;;;5058221;28;20131;-68
2021/09/21 01:31:06;;;;;;;6.13;5.53;;;;;;;;;;5065047;28;20048;-68
2021/09/21 01:33:32;;;;;;;6.43;5.82;;;;;;;;;;5058976;28;20044;-69
2021/09/21 01:35:58;;;;;;;7.72;6.38;;;;;;;;;;5064175;28;20044;-68
2021/09/21 01:38:24;;;;;;;8.38;7.10;;;;;;;;;;5058618;28;20045;-68
2021/09/21 01:40:50;;;;;;;7.20;6.60;;;;;;;;;;5063834;28;20049;-68
2021/09/21 01:43:16;;;;;;;6.95;6.35;;;;;;;;;;5066911;28;20400;-68
2021/09/21 01:45:42;;;;;;;8.25;6.95;;;;;;;;;;5058308;28;20032;-68
2021/09/21 01:48:08;;;;;;;6.28;5.68;;;;;;;;;;5065616;28;20385;-68
2021/09/21 01:50:42;;;;;;;7.38;5.45;;;;;;;;;;5059517;28;20412;-68
2021/09/21 02:00:58;;;;;;;6.82;6.15;;;;;;;;;;5062489;28;20139;-68
2021/09/21 02:03:24;;;;;;;6.38;5.60;;;;;;;;;;5066700;28;20090;-68
2021/09/21 02:05:50;;;;;;;7.72;5.90;;;;;;;;;;5060076;28;20163;-68
2021/09/21 02:08:17;;;;;;;7.38;6.68;;;;;;;;;;5065160;28;20463;-68
2021/09/21 02:10:44;;;;;;;8.30;6.50;;;;;;;;;;5061022;28;20453;-68
2021/09/21 02:13:10;;;;;;;6.43;5.80;;;;;;;;;;5066895;28;20131;-68
2021/09/21 02:15:36;;;;;;;6.60;6.00;;;;;;;;;;5061425;28;20412;-68
2021/09/21 02:18:03;;;;;;;6.95;6.25;;;;;;;;;;5063732;28;20485;-68
2021/09/21 02:20:30;;;;;;;9.65;6.13;;;;;;;;;;5054592;28;20040;-68
2021/09/21 02:22:56;;;;;;;7.15;6.45;;;;;;;;;;5064064;28;20043;-68
2021/09/21 02:25:22;;;;;;;7.72;5.40;;;;;;;;;;5061547;28;20045;-68
2021/09/21 02:27:48;;;;;;;6.50;5.90;;;;;;;;;;5062025;28;20091;-68
2021/09/21 02:30:14;;;;;;;6.50;5.90;;;;;;;;;;5046384;28;20527;-68
2021/09/21 02:32:41;;;;;;;8.07;6.80;;;;;;;;;;5063465;28;20048;-68
2021/09/21 02:35:07;;;;;;;7.28;5.65;;;;;;;;;;5066759;28;20033;-68
2021/09/21 02:37:33;;;;;;;6.40;5.72;;;;;;;;;;5055474;28;20046;-68
2021/09/21 02:40:00;;;;;;;8.13;5.93;;;;;;;;;;5064459;28;20435;-68
2021/09/21 02:42:26;;;;;;;8.23;5.53;;;;;;;;;;5060879;28;20033;-68
2021/09/21 02:44:52;;;;;;;6.55;5.95;;;;;;;;;;5067022;28;20076;-68
2021/09/21 02:47:18;;;;;;;6.18;5.57;;;;;;;;;;5038338;28;20044;-68
2021/09/21 02:49:44;;;;;;;6.78;6.07;;;;;;;;;;5060046;28;20090;-68
2021/09/21 02:52:11;;;;;;;7.65;6.05;;;;;;;;;;5056027;28;20068;-68
2021/09/21 02:54:37;;;;;;;5.85;5.28;;;;;;;;;;5065046;28;20071;-68
2021/09/21 02:57:03;;;;;;;6.55;5.85;;;;;;;;;;5058489;28;20041;-68
2021/09/21 02:59:29;;;;;;;6.47;5.82;;;;;;;;;;5064256;28;20174;-68
2021/09/21 03:01:55;;;;;;;6.35;5.55;;;;;;;;;;5060479;28;20552;-68
2021/09/21 03:04:30;;;;;;;6.15;5.55;;;;;;;;;;5061033;28;20044;-68
2021/09/21 03:07:09;;;;;;;6.75;6.03;;;;;;;;;;5057915;28;20070;-68
2021/09/21 03:12:24;;;;;;;6.40;5.55;;;;;;;;;;5057155;28;20401;-68
2021/09/21 03:17:34;;;;;;;6.03;5.43;;;;;;;;;;5056183;28;20051;-68
2021/09/21 03:20:01;;;;;;;7.32;5.88;;;;;;;;;;5064048;28;20040;-68
2021/09/21 03:22:28;;;;;;;6.63;5.78;;;;;;;;;;5056923;28;20075;-68
2021/09/21 03:24:55;;;;;;;7.13;5.82;;;;;;;;;;5065487;28;20048;-68
2021/09/21 03:27:21;;;;;;;6.63;5.93;;;;;;;;;;5062001;28;20041;-68
2021/09/21 03:29:47;;;;;;;8.70;6.15;;;;;;;;;;5062426;28;20610;-68
2021/09/21 03:32:13;;;;;;;6.93;5.65;;;;;;;;;;5062130;28;20048;-68
2021/09/21 03:34:40;;;;;;;7.55;6.20;;;;;;;;;;5055122;28;20040;-68
2021/09/21 03:37:10;;;;;;;7.43;6.45;;;;;;;;;;5063206;28;20436;-68
2021/09/21 03:39:36;;;;;;;10.13;6.13;;;;;;;;;;5048965;28;20045;-68
2021/09/21 03:42:03;;;;;;;7.78;6.40;;;;;;;;;;5056805;28;20083;-68
2021/09/21 03:44:29;;;;;;;7.25;6.55;;;;;;;;;;5055883;28;20063;-68
2021/09/21 03:46:55;;;;;;;8.27;6.05;;;;;;;;;;5062835;28;20041;-68
2021/09/21 03:49:22;;;;;;;7.88;6.20;;;;;;;;;;5038344;28;20120;-68
2021/09/21 03:51:48;;;;;;;6.93;6.22;;;;;;;;;;5062692;28;20151;-68
2021/09/21 03:54:14;;;;;;;7.22;6.53;;;;;;;;;;5054571;28;20054;-68
2021/09/21 03:56:40;;;;;;;8.30;6.30;;;;;;;;;;5064615;28;20037;-68
2021/09/21 03:59:07;;;;;;;7.63;6.35;;;;;;;;;;5061291;28;20481;-68
2021/09/21 04:01:33;;;;;;;11.13;7.05;;;;;;;;;;5065682;28;20037;-68
2021/09/21 04:04:00;;;;;;;8.20;6.10;;;;;;;;;;5054604;28;20508;-68
2021/09/21 04:06:26;;;;;;;8.45;5.90;;;;;;;;;;5060709;28;20432;-68
2021/09/21 04:08:53;;;;;;;7.13;6.30;;;;;;;;;;5060892;28;20154;-68
2021/09/21 04:11:19;;;;;;;7.70;6.95;;;;;;;;;;5056002;28;20032;-68
2021/09/21 04:13:45;;;;;;;8.63;5.97;;;;;;;;;;5063452;28;20053;-68
2021/09/21 04:16:11;;;;;;;9.02;6.72;;;;;;;;;;5058389;28;20040;-69
2021/09/21 04:18:37;;;;;;;7.10;6.40;;;;;;;;;;5059802;28;20037;-69
2021/09/21 04:21:04;;;;;;;7.72;6.28;;;;;;;;;;5054742;28;20040;-68
2021/09/21 04:23:30;;;;;;;7.57;6.72;;;;;;;;;;5059187;28;20405;-68
2021/09/21 04:25:56;;;;;;;7.38;6.68;;;;;;;;;;5058438;28;20500;-68
2021/09/21 04:28:23;;;;;;;6.80;6.15;;;;;;;;;;5058544;28;20037;-68
2021/09/21 04:30:49;;;;;;;7.13;6.40;;;;;;;;;;5054368;28;20409;-68
2021/09/21 04:33:15;;;;;;;8.48;6.18;;;;;;;;;;5064508;28;20308;-68
2021/09/21 04:35:42;;;;;;;7.38;6.68;;;;;;;;;;5051505;28;20056;-68
2021/09/21 04:38:08;;;;;;;8.15;6.38;;;;;;;;;;5050781;28;20409;-68
2021/09/21 04:40:34;;;;;;;9.15;6.75;;;;;;;;;;5059729;28;20563;-68
2021/09/21 04:43:00;;;;;;;7.97;6.97;;;;;;;;;;5064712;28;20040;-68
2021/09/21 04:45:26;;;;;;;7.50;6.10;;;;;;;;;;5056483;28;20040;-68
2021/09/21 04:47:52;;;;;;;8.23;6.60;;;;;;;;;;5063615;28;20041;-68
2021/09/21 04:50:18;;;;;;;10.27;7.20;;;;;;;;;;5067615;28;20140;-68
2021/09/21 04:52:45;;;;;;;7.90;6.88;;;;;;;;;;5056671;28;20052;-68
2021/09/21 04:55:11;;;;;;;7.65;6.43;;;;;;;;;;5061180;28;20067;-68
2021/09/21 04:57:37;;;;;;;7.20;6.28;;;;;;;;;;5056598;28;20477;-68
2021/09/21 05:00:04;;;;;;;8.02;7.22;;;;;;;;;;5065793;28;20051;-68
2021/09/21 05:02:30;;;;;;;9.35;7.20;;;;;;;;;;5052915;28;20405;-68
2021/09/21 05:04:56;;;;;;;8.82;6.55;;;;;;;;;;5063584;28;20127;-68
2021/09/21 05:07:22;;;;;;;7.80;6.13;;;;;;;;;;5057061;28;20056;-68
2021/09/21 05:09:48;;;;;;;7.68;6.07;;;;;;;;;;5061183;28;20060;-69
2021/09/21 05:12:14;;;;;;;7.15;6.43;;;;;;;;;;5056693;28;20043;-68
2021/09/21 05:14:40;;;;;;;7.72;6.80;;;;;;;;;;5063200;28;20045;-68
2021/09/21 05:17:06;;;;;;;8.70;6.68;;;;;;;;;;5061757;28;20118;-68
2021/09/21 05:19:32;;;;;;;7.63;6.53;;;;;;;;;;5046164;28;20112;-68
2021/09/21 05:21:58;;;;;;;10.20;6.80;;;;;;;;;;5058294;28;20029;-68
2021/09/21 05:24:24;;;;;;;6.90;6.07;;;;;;;;;;5064237;28;20075;-68
2021/09/21 05:26:50;;;;;;;7.82;6.07;;;;;;;;;;5063339;28;20040;-68
2021/09/21 05:29:17;;;;;;;7.22;6.15;;;;;;;;;;5053453;28;20033;-68
2021/09/21 05:31:43;;;;;;;7.63;6.15;;;;;;;;;;5068000;28;20052;-68
2021/09/21 05:34:09;;;;;;;9.23;5.60;;;;;;;;;;5058855;28;20067;-68
2021/09/21 05:36:35;;;;;;;8.48;6.22;;;;;;;;;;5058714;28;20033;-68
2021/09/21 05:39:01;;;;;;;8.98;5.78;;;;;;;;;;5061798;28;20311;-68
2021/09/21 05:41:27;;;;;;;7.93;5.80;;;;;;;;;;5062893;28;20154;-68
2021/09/21 05:43:53;;;;;;;8.02;6.47;;;;;;;;;;5053031;28;20052;-68
2021/09/21 05:46:19;;;;;;;7.90;6.00;;;;;;;;;;5059359;28;20121;-68
2021/09/21 05:48:45;;;;;;;7.03;6.15;;;;;;;;;;5056218;28;20127;-67
2021/09/21 05:51:11;;;;;;;8.52;5.95;;;;;;;;;;5063146;28;20106;-67
2021/09/21 05:53:37;;;;;;;8.85;6.45;;;;;;;;;;5058369;28;20049;-67
2021/09/21 05:56:03;;;;;;;7.43;6.13;;;;;;;;;;5064566;28;20056;-67
2021/09/21 05:58:29;;;;;;;8.30;6.00;;;;;;;;;;5054818;28;20036;-67
2021/09/21 06:00:57;;;;;;;6.25;5.63;;;;;;;;;;5063250;28;20512;-67
2021/09/21 06:03:24;;;;;;;8.48;6.50;;;;;;;;;;5065222;28;20037;-67
2021/09/21 06:05:50;;;;;;;9.63;6.07;;;;;;;;;;5055958;28;20088;-67
2021/09/21 06:08:17;;;;;;;10.85;6.45;;;;;;;;;;5067335;28;20052;-67
2021/09/21 06:10:43;;;;;;;8.20;6.13;;;;;;;;;;5061421;28;20064;-67
2021/09/21 06:13:09;;;;;;;6.43;5.68;;;;;;;;;;5061902;28;20048;-67
2021/09/21 06:15:35;;;;;;;7.68;6.50;;;;;;;;;;5060813;28;20627;-67
2021/09/21 06:18:01;;;;;;;7.85;5.85;;;;;;;;;;5062945;28;20555;-67
2021/09/21 06:20:27;;;;;;;10.35;6.63;;;;;;;;;;5057730;28;20473;-67
2021/09/21 06:22:53;;;;;;;6.60;6.03;;;;;;;;;;5064531;28;20040;-67
2021/09/21 06:25:19;;;;;;;14.95;8.23;;;;;;;;;;5060537;28;20112;-67
2021/09/21 06:27:46;;;;;;;8.07;5.80;;;;;;;;;;5061526;28;20244;-67
2021/09/21 06:30:13;;;;;;;8.55;6.25;;;;;;;;;;5058009;28;20060;-68
2021/09/21 06:32:39;;;;;;;8.70;6.38;;;;;;;;;;5059664;28;20056;-68
2021/09/21 06:35:06;;;;;;;8.85;5.60;;;;;;;;;;5053175;28;20048;-68
2021/09/21 06:37:35;;;;;;;9.85;6.35;;;;;;;;;;5061421;28;20369;-68
2021/09/21 06:40:01;;;;;;;9.48;6.43;;;;;;;;;;5059004;28;20540;-68
2021/09/21 06:42:30;;;;;;;6.93;6.22;;;;;;;;;;5059159;28;20060;-67
2021/09/21 06:44:57;;;;;;;7.07;6.38;;;;;;;;;;5043817;28;20052;-67
2021/09/21 06:47:23;;;;;;;8.68;7.05;;;;;;;;;;5064178;28;20064;-67
2021/09/21 06:49:49;;;;;;;7.68;6.72;;;;;;;;;;5062664;28;20409;-67
2021/09/21 06:52:15;;;;;;;9.13;7.20;;;;;;;;;;5056366;28;20044;-67
2021/09/21 06:54:41;;;;;;;7.53;6.55;;;;;;;;;;5065159;28;20048;-67
2021/09/21 06:57:07;;;;;;;9.23;7.85;;;;;;;;;;5055753;28;20048;-68
2021/09/21 06:59:33;;;;;;;7.63;6.75;;;;;;;;;;5063262;28;20045;-68
2021/09/21 07:01:59;;;;;;;9.48;7.28;;;;;;;;;;5061863;28;20070;-68
2021/09/21 07:04:25;;;;;;;8.13;6.85;;;;;;;;;;5060995;28;20527;-68
2021/09/21 07:06:51;;;;;;;8.23;7.45;;;;;;;;;;5057310;28;20445;-68
2021/09/21 07:09:17;;;;;;;9.27;7.35;;;;;;;;;;5063978;28;20309;-68
2021/09/21 07:11:43;;;;;;;8.48;7.38;;;;;;;;;;5053244;28;20037;-68
2021/09/21 07:14:10;;;;;;;9.27;7.28;;;;;;;;;;5065042;28;20090;-66
2021/09/21 07:16:37;;;;;;;7.68;6.78;;;;;;;;;;5044266;28;20052;-66
2021/09/21 07:19:03;;;;;;;7.82;6.88;;;;;;;;;;5059494;28;20044;-67
2021/09/21 07:21:29;;;;;;;8.85;7.20;;;;;;;;;;5058034;28;20056;-67
2021/09/21 07:23:55;;;;;;;8.55;7.25;;;;;;;;;;5063006;28;20048;-67
2021/09/21 07:26:21;;;;;;;8.07;7.20;;;;;;;;;;5068663;28;20384;-67
2021/09/21 07:28:47;;;;;;;8.38;7.40;;;;;;;;;;5058532;28;20052;-67
2021/09/21 07:31:15;;;;;;;8.35;6.55;;;;;;;;;;5062735;28;20045;-67
2021/09/21 07:33:41;;;;;;;8.95;6.90;;;;;;;;;;5060169;28;20366;-67
2021/09/21 07:36:07;;;;;;;7.20;6.47;;;;;;;;;;5069694;28;20485;-68
2021/09/21 07:38:33;;;;;;;8.93;6.50;;;;;;;;;;5061000;28;20123;-67
2021/09/21 07:40:59;;;;;;;6.82;6.10;;;;;;;;;;5063487;28;20053;-67
2021/09/21 07:43:26;;;;;;;7.10;6.07;;;;;;;;;;5059876;28;20037;-67
2021/09/21 07:45:52;;;;;;;8.98;5.70;;;;;;;;;;5063361;28;20040;-67
2021/09/21 07:48:20;;;;;;;7.00;5.43;;;;;;;;;;5058278;28;20029;-67
2021/09/21 07:50:46;;;;;;;7.20;5.38;;;;;;;;;;5063642;28;20024;-67
2021/09/21 07:53:12;;;;;;;5.70;5.10;;;;;;;;;;5061777;28;20462;-67
2021/09/21 07:55:39;;;;;;;5.72;5.20;;;;;;;;;;5060664;28;20043;-67
2021/09/21 07:58:05;;;;;;;7.65;5.00;;;;;;;;;;5055728;28;20404;-67
2021/09/21 08:00:31;;;;;;;5.90;4.65;;;;;;;;;;5063604;28;20076;-67
2021/09/21 08:02:57;;;;;;;5.07;4.57;;;;;;;;;;5062201;28;20047;-67
2021/09/21 08:05:23;;;;;;;7.53;4.60;;;;;;;;;;5061377;28;20044;-67
2021/09/21 08:07:49;;;;;;;5.07;4.22;;;;;;;;;;5066955;28;20049;-67
2021/09/21 08:10:16;;;;;;;6.05;4.28;;;;;;;;;;5057638;28;20048;-67
2021/09/21 08:12:42;;;;;;;5.05;4.55;;;;;;;;;;5064171;28;20294;-67
2021/09/21 08:15:09;;;;;;;5.93;4.65;;;;;;;;;;5052902;28;20110;-67
2021/09/21 08:17:36;;;;;;;6.40;4.00;;;;;;;;;;5064230;28;20044;-67
2021/09/21 08:20:02;;;;;;;6.40;4.53;;;;;;;;;;5062454;28;20093;-67
2021/09/21 08:22:28;;;;;;;5.63;4.72;;;;;;;;;;5063085;28;20075;-67
2021/09/21 08:24:55;;;;;;;7.28;4.18;;;;;;;;;;5057806;28;20093;-67
2021/09/21 08:27:22;;;;;;;5.97;4.43;;;;;;;;;;5065804;28;20076;-67
2021/09/21 08:29:48;;;;;;;5.10;4.60;;;;;;;;;;5053863;28;20398;-67
2021/09/21 08:32:14;;;;;;;7.47;4.68;;;;;;;;;;5064441;28;20398;-67
2021/09/21 08:34:40;;;;;;;6.03;4.88;;;;;;;;;;5057808;28;20049;-68
2021/09/21 08:37:06;;;;;;;6.90;4.63;;;;;;;;;;5066969;28;20472;-68
2021/09/21 08:39:32;;;;;;;5.20;4.20;;;;;;;;;;5054040;28;20240;-68
2021/09/21 08:41:58;;;;;;;6.03;4.32;;;;;;;;;;5064976;28;20044;-68
2021/09/21 08:44:24;;;;;;;5.60;4.60;;;;;;;;;;5064803;28;20048;-68
2021/09/21 08:46:51;;;;;;;7.22;4.85;;;;;;;;;;5055602;28;20074;-68
2021/09/21 08:49:17;;;;;;;5.15;4.57;;;;;;;;;;5062449;28;20037;-68
2021/09/21 08:51:43;;;;;;;5.43;4.18;;;;;;;;;;5055891;28;20036;-68
2021/09/21 08:54:09;;;;;;;8.95;4.53;;;;;;;;;;5057148;28;20051;-68
2021/09/21 08:56:35;;;;;;;5.63;4.55;;;;;;;;;;5058497;28;20041;-68
2021/09/21 08:59:03;;;;;;;5.93;4.50;;;;;;;;;;5065060;28;20361;-68
2021/09/21 09:01:43;;;;;;;4.60;4.20;;;;;;;;;;5057517;28;20036;-68
2021/09/21 09:04:10;;;;;;;4.72;4.22;;;;;;;;;;5064465;28;20500;-68
2021/09/21 09:06:43;;;;;;;4.72;4.20;;;;;;;;;;5060581;28;20044;-68
2021/09/21 09:09:10;;;;;;;6.68;4.53;;;;;;;;;;5060333;28;20516;-68
2021/09/21 09:11:36;;;;;;;6.72;4.45;;;;;;;;;;5063138;28;20091;-68
2021/09/21 09:14:02;;;;;;;4.60;3.63;;;;;;;;;;5065384;28;20107;-68
2021/09/21 09:16:33;;;;;;;6.45;4.45;;;;;;;;;;5062515;28;20140;-68
2021/09/21 09:19:01;;;;;;;5.20;4.20;;;;;;;;;;5067839;28;20154;-68
2021/09/21 09:21:27;;;;;;;5.28;4.07;;;;;;;;;;5060899;28;20048;-68
2021/09/21 09:23:53;;;;;;;5.90;4.00;;;;;;;;;;5062174;28;20048;-68
2021/09/21 09:26:24;;;;;;;5.57;3.70;;;;;;;;;;5061348;28;20048;-68
2021/09/21 09:28:51;;;;;;;6.30;3.90;;;;;;;;;;5066538;28;20037;-68
2021/09/21 09:31:28;;;;;;;5.25;4.10;;;;;;;;;;5066209;28;20075;-68
2021/09/21 09:34:09;;;;;;;4.15;3.72;;;;;;;;;;5067399;28;20067;-68
2021/09/21 09:36:49;;;;;;;4.97;4.03;;;;;;;;;;5065401;28;20052;-68
2021/09/21 09:39:16;;;;;;;5.53;3.78;;;;;;;;;;5061656;28;20476;-68
2021/09/21 09:41:43;;;;;;;4.82;3.67;;;;;;;;;;5068910;28;20154;-68
2021/09/21 09:44:10;;;;;;;4.93;3.45;;;;;;;;;;5062422;28;20189;-68
2021/09/21 09:46:52;;;;;;;5.85;3.40;;;;;;;;;;5067317;28;20045;-68
2021/09/21 09:49:22;;;;;;;3.47;2.80;;;;;;;;;;5056911;28;20075;-68
2021/09/21 09:51:49;;;;;;;3.30;2.40;;;;;;;;;;5065852;28;20519;-68
2021/09/21 09:54:15;;;;;;;4.35;2.70;;;;;;;;;;5061798;28;20181;-68
2021/09/21 09:56:45;;;;;;;3.35;2.40;;;;;;;;;;5067053;28;20252;-68
2021/09/21 09:59:13;;;;;;;3.40;2.30;;;;;;;;;;5056154;28;20112;-68
2021/09/21 10:01:40;;;;;;;2.90;2.35;;;;;;;;;;5070013;28;20041;-68
2021/09/21 10:04:06;;;;;;;4.53;2.40;;;;;;;;;;5063593;28;20090;-68
2021/09/21 10:06:32;;;;;;;2.97;2.40;;;;;;;;;;5061678;28;20064;-68
2021/09/21 10:08:58;;;;;;;3.00;2.15;;;;;;;;;;5056056;28;20059;-68
2021/09/21 10:11:29;;;;;;;3.00;1.98;;;;;;;;;;5068975;28;20052;-68
2021/09/21 10:13:56;;;;;;;2.97;2.00;;;;;;;;;;5060109;28;20260;-68
2021/09/21 10:16:22;;;;;;;3.22;1.80;;;;;;;;;;5064891;28;20052;-68
2021/09/21 10:18:53;;;;;;;4.68;2.03;;;;;;;;;;5060744;28;20048;-68
2021/09/21 10:21:29;;;;;;;5.38;2.50;;;;;;;;;;5023476;28;20079;-68
2021/09/21 10:23:56;;;;;;;3.97;2.10;;;;;;;;;;5059473;28;20051;-69
2021/09/21 10:26:24;;;;;;;3.00;2.05;;;;;;;;;;5066378;28;20385;-68
2021/09/21 10:28:51;;;;;;;4.00;2.60;;;;;;;;;;5061650;28;20037;-68
2021/09/21 10:31:18;;;;;;;3.78;2.33;;;;;;;;;;5065559;28;20052;-68
2021/09/21 10:33:44;;;;;;;4.90;2.45;;;;;;;;;;5058922;28;20141;-68
2021/09/21 10:36:20;;;;;;;3.38;2.30;;;;;;;;;;5043612;28;20148;-68
2021/09/21 10:39:04;;;;;;;4.63;2.83;;;;;;;;;;5065038;28;20041;-69
2021/09/21 10:41:30;;;;;;;4.68;3.30;;;;;;;;;;5068168;28;20489;-69
2021/09/21 10:43:57;;;;;;;3.78;2.58;;;;;;;;;;5058961;28;20088;-69
2021/09/21 10:46:23;;;;;;;4.38;3.00;;;;;;;;;;5058550;28;20041;-69
2021/09/21 10:48:49;;;;;;;6.25;3.28;;;;;;;;;;5066012;28;20057;-69
2021/09/21 10:51:16;;;;;;;6.68;3.30;;;;;;;;;;5059304;28;20051;-69
2021/09/21 10:53:42;;;;;;;5.82;3.17;;;;;;;;;;5058636;28;20049;-69
2021/09/21 10:56:09;;;;;;;5.25;2.78;;;;;;;;;;5059232;28;20070;-69
2021/09/21 10:58:36;;;;;;;2.95;2.50;;;;;;;;;;5069433;28;20041;-69
2021/09/21 11:01:02;;;;;;;4.63;2.72;;;;;;;;;;5058024;28;20076;-69
2021/09/21 11:03:29;;;;;;;3.35;2.75;;;;;;;;;;5064634;28;20108;-69
2021/09/21 11:05:56;;;;;;;4.93;3.03;;;;;;;;;;5058015;28;20059;-69
2021/09/21 11:08:32;;;;;;;5.85;3.00;;;;;;;;;;5067414;28;20508;-69
2021/09/21 11:10:59;;;;;;;3.92;3.03;;;;;;;;;;5053319;28;20098;-69
2021/09/21 11:13:27;;;;;;;4.15;2.50;;;;;;;;;;5061692;28;20512;-69
2021/09/21 11:15:57;;;;;;;6.43;3.47;;;;;;;;;;5057195;28;20059;-69
2021/09/21 11:18:23;;;;;;;4.07;3.25;;;;;;;;;;5065932;28;20074;-69
2021/09/21 11:20:57;;;;;;;6.03;3.17;;;;;;;;;;5059245;28;20044;-69
2021/09/21 11:23:24;;;;;;;7.40;3.15;;;;;;;;;;5064501;28;20131;-69
2021/09/21 11:25:51;;;;;;;6.28;3.58;;;;;;;;;;5062693;28;20378;-69
2021/09/21 11:28:18;;;;;;;4.13;3.40;;;;;;;;;;5066381;28;20039;-69
2021/09/21 11:30:44;;;;;;;3.85;2.95;;;;;;;;;;5063191;28;20035;-69
2021/09/21 11:33:14;;;;;;;5.03;3.42;;;;;;;;;;5055199;28;20044;-69
2021/09/21 11:35:44;;;;;;;3.92;3.53;;;;;;;;;;5067291;28;20580;-69
2021/09/21 11:38:10;;;;;;;4.38;2.72;;;;;;;;;;5059946;28;20099;-69
2021/09/21 11:40:37;;;;;;;4.75;3.38;;;;;;;;;;5062573;28;20111;-69
2021/09/21 11:43:03;;;;;;;4.68;3.55;;;;;;;;;;5059853;28;20049;-69
2021/09/21 11:45:30;;;;;;;6.68;3.65;;;;;;;;;;5065735;28;20036;-69
2021/09/21 11:47:56;;;;;;;4.57;3.28;;;;;;;;;;5052476;28;20048;-67
2021/09/21 11:50:33;;;;;;;5.25;3.80;;;;;;;;;;5061774;28;20036;-68
2021/09/21 11:53:01;;;;;;;7.97;4.20;;;;;;;;;;5053581;28;20044;-68
2021/09/21 11:55:32;;;;;;;6.47;3.95;;;;;;;;;;5067107;28;20048;-67
2021/09/21 11:57:59;;;;;;;4.90;4.18;;;;;;;;;;5053696;28;20060;-67
2021/09/21 12:00:27;;;;;;;6.38;4.20;;;;;;;;;;5062927;28;20144;-68
2021/09/21 12:02:54;;;;;;;6.18;4.78;;;;;;;;;;5057832;28;20142;-68
2021/09/21 12:05:20;;;;;;;6.32;4.88;;;;;;;;;;5065154;28;20105;-68
2021/09/21 12:07:47;;;;;;;6.20;4.60;;;;;;;;;;5051190;28;21461;-68
2021/09/21 12:10:13;;;;;;;7.63;4.40;;;;;;;;;;5061055;28;20063;-67
2021/09/21 12:12:39;;;;;;;5.57;4.35;;;;;;;;;;5063748;28;20050;-67
2021/09/21 12:15:05;;;;;;;6.13;4.47;;;;;;;;;;5061902;28;20048;-67
2021/09/21 12:17:38;;;;;;;6.20;4.68;;;;;;;;;;5063164;28;20565;-68
2021/09/21 12:20:05;;;;;;;7.07;4.15;;;;;;;;;;5059378;28;20040;-68
2021/09/21 12:22:31;;;;;;;6.18;4.72;;;;;;;;;;5068498;28;20036;-68
2021/09/21 12:25:11;;;;;;;5.72;4.00;;;;;;;;;;5051392;28;20050;-68
2021/09/21 12:27:38;;;;;;;6.93;4.82;;;;;;;;;;5059968;28;23029;-68
2021/09/21 12:30:08;;;;;;;8.20;5.15;;;;;;;;;;5060734;28;20044;-68
2021/09/21 12:32:34;;;;;;;6.60;4.47;;;;;;;;;;5065626;28;20048;-68
2021/09/21 12:35:05;;;;;;;5.40;4.43;;;;;;;;;;5051463;28;20580;-68
2021/09/21 12:37:44;;;;;;;5.63;4.40;;;;;;;;;;5062826;28;20135;-68
2021/09/21 12:40:14;;;;;;;5.38;4.45;;;;;;;;;;5058233;28;20127;-68
2021/09/21 12:42:41;;;;;;;5.88;4.28;;;;;;;;;;5064411;28;20044;-64
2021/09/21 12:45:08;;;;;;;7.78;4.57;;;;;;;;;;5062325;28;20041;-64
2021/09/21 12:47:41;;;;;;;7.45;4.53;;;;;;;;;;5068250;28;20145;-64
2021/09/21 12:50:14;;;;;;;6.47;4.55;;;;;;;;;;5065259;28;20051;-64
2021/09/21 12:52:50;;;;;;;6.95;4.43;;;;;;;;;;5071162;28;20094;-66
2021/09/21 12:55:25;;;;;;;4.78;3.90;;;;;;;;;;5054817;28;20047;-65
2021/09/21 12:57:55;;;;;;;6.25;3.80;;;;;;;;;;5066869;28;20033;-64
2021/09/21 13:00:21;;;;;;;7.20;4.47;;;;;;;;;;5060154;28;20041;-65
2021/09/21 13:02:49;;;;;;;6.57;4.90;;;;;;;;;;5067370;28;20492;-66
2021/09/21 13:05:15;;;;;;;7.07;4.55;;;;;;;;;;5054714;28;20037;-64
2021/09/21 13:07:41;;;;;;;7.03;4.10;;;;;;;;;;5066282;28;20065;-64
2021/09/21 13:10:08;;;;;;;7.13;4.80;;;;;;;;;;5064084;28;20145;-64
2021/09/21 13:12:34;;;;;;;5.30;4.32;;;;;;;;;;5065695;28;20040;-64
2021/09/21 13:15:00;;;;;;;8.98;4.57;;;;;;;;;;5066612;28;20040;-64
2021/09/21 13:17:26;;;;;;;6.72;5.18;;;;;;;;;;5060909;28;20090;-64
2021/09/21 13:19:52;;;;;;;5.50;4.70;;;;;;;;;;5065033;28;20040;-64
2021/09/21 13:22:19;;;;;;;7.07;4.63;;;;;;;;;;5061267;28;20115;-65
2021/09/21 13:24:45;;;;;;;7.35;4.43;;;;;;;;;;5064652;28;20478;-64
2021/09/21 13:27:11;;;;;;;7.00;4.65;;;;;;;;;;5063629;28;20043;-65
2021/09/21 13:29:37;;;;;;;7.07;5.22;;;;;;;;;;5064437;28;20094;-65
2021/09/21 13:32:04;;;;;;;8.10;5.35;;;;;;;;;;5058409;28;20048;-65
2021/09/21 13:34:30;;;;;;;6.63;5.10;;;;;;;;;;5067690;28;20036;-65
2021/09/21 13:36:56;;;;;;;8.30;5.05;;;;;;;;;;5058939;28;20128;-65
2021/09/21 13:39:22;;;;;;;8.30;4.93;;;;;;;;;;5063645;28;20032;-65
2021/09/21 13:41:48;;;;;;;7.10;4.93;;;;;;;;;;5060868;28;20041;-64
2021/09/21 13:44:14;;;;;;;7.40;4.97;;;;;;;;;;5068368;28;20041;-65
2021/09/21 13:46:40;;;;;;;9.65;5.00;;;;;;;;;;5062490;28;20098;-65
2021/09/21 13:49:06;;;;;;;7.95;4.90;;;;;;;;;;5060959;28;20459;-65
2021/09/21 13:51:32;;;;;;;8.57;5.00;;;;;;;;;;5060722;28;20032;-65
2021/09/21 13:53:58;;;;;;;6.18;4.55;;;;;;;;;;5066962;28;20393;-65
2021/09/21 13:56:24;;;;;;;4.93;4.40;;;;;;;;;;5069718;28;20255;-65
2021/09/21 13:58:50;;;;;;;6.53;4.75;;;;;;;;;;5055282;28;20078;-65
2021/09/21 14:01:16;;;;;;;6.68;5.38;;;;;;;;;;5069531;28;20033;-65
2021/09/21 14:03:42;;;;;;;7.75;4.90;;;;;;;;;;5062530;28;20037;-65
2021/09/21 14:06:09;;;;;;;10.35;6.35;;;;;;;;;;5061111;28;20056;-64
2021/09/21 14:08:35;;;;;;;7.75;5.57;;;;;;;;;;5058376;28;20051;-64
2021/09/21 14:11:01;;;;;;;9.77;5.20;;;;;;;;;;5069961;28;20108;-65
2021/09/21 14:13:27;;;;;;;7.97;5.95;;;;;;;;;;5064208;28;20037;-64
2021/09/21 14:15:53;;;;;;;7.32;5.57;;;;;;;;;;5059323;28;20040;-64
2021/09/21 14:18:19;;;;;;;8.15;5.50;;;;;;;;;;5060031;28;20036;-64
2021/09/21 14:20:45;;;;;;;7.50;6.00;;;;;;;;;;5070891;28;20449;-64
2021/09/21 14:23:11;;;;;;;7.43;5.95;;;;;;;;;;5053707;28;20174;-64
2021/09/21 14:25:38;;;;;;;8.20;5.88;;;;;;;;;;5063813;28;20091;-64
2021/09/21 14:28:04;;;;;;;8.20;6.07;;;;;;;;;;5059648;28;20043;-64
2021/09/21 14:30:30;;;;;;;7.32;5.30;;;;;;;;;;5070229;28;20043;-64
2021/09/21 14:32:56;;;;;;;8.25;5.50;;;;;;;;;;5064054;28;20076;-64
2021/09/21 14:35:23;;;;;;;6.47;5.53;;;;;;;;;;5055063;28;20055;-64
2021/09/21 14:37:51;;;;;;;7.03;5.63;;;;;;;;;;5066059;28;20032;-64
2021/09/21 14:40:17;;;;;;;8.10;5.65;;;;;;;;;;5054728;28;20451;-64
2021/09/21 14:42:44;;;;;;;8.80;5.95;;;;;;;;;;5061945;28;20151;-64
2021/09/21 14:45:11;;;;;;;7.63;5.90;;;;;;;;;;5050968;28;20056;-64
2021/09/21 14:47:37;;;;;;;9.10;5.80;;;;;;;;;;5065166;28;20040;-64
2021/09/21 14:50:06;;;;;;;7.63;5.72;;;;;;;;;;5058596;28;20117;-65
2021/09/21 14:52:32;;;;;;;7.43;5.53;;;;;;;;;;5061822;28;20049;-65
2021/09/21 14:54:58;;;;;;;8.55;6.00;;;;;;;;;;5054851;28;20040;-65